sensor_id;sensor_type;location;lat;lon;timestamp;temperature;humidity
6178;DHT22;3122;48.208;11.174;2023-01-13T00:02:37;7.20;1.00
6178;DHT22;3122;48.208;11.174;2023-01-13T00:07:38;7.30;1.00
6178;DHT22;3122;48.208;11.174;2023-01-13T00:12:40;7.20;1.00
6178;DHT22;3122;48.208;11.174;2023-01-13T00:17:41;7.20;1.00
6178;DHT22;3122;48.208;11.174;2023-01-13T00:22:41;7.30;1.00
6178;DHT22;3122;48.208;11.174;2023-01-13T00:27:42;7.30;1.00
6178;DHT22;3122;48.208;11.174;2023-01-13T00:32:42;7.30;1.00
6178;DHT22;3122;48.208;11.174;2023-01-13T00:37:43;7.30;1.00
6178;DHT22;3122;48.208;11.174;2023-01-13T00:42:43;7.30;1.00
6178;DHT22;3122;48.208;11.174;2023-01-13T00:48:03;7.30;1.00
6178;DHT22;3122;48.208;11.174;2023-01-13T00:53:03;7.30;1.00
6178;DHT22;3122;48.208;11.174;2023-01-13T00:58:04;7.40;1.00
6178;DHT22;3122;48.208;11.174;2023-01-13T01:03:05;7.40;1.00
6178;DHT22;3122;48.208;11.174;2023-01-13T01:08:11;7.50;1.00
6178;DHT22;3122;48.208;11.174;2023-01-13T01:13:12;7.50;1.00
6178;DHT22;3122;48.208;11.174;2023-01-13T01:18:16;7.50;1.00
6178;DHT22;3122;48.208;11.174;2023-01-13T01:23:17;7.50;1.00
6178;DHT22;3122;48.208;11.174;2023-01-13T01:28:17;7.50;1.00
6178;DHT22;3122;48.208;11.174;2023-01-13T01:33:20;7.60;1.00
6178;DHT22;3122;48.208;11.174;2023-01-13T01:38:21;7.70;1.00
6178;DHT22;3122;48.208;11.174;2023-01-13T01:43:45;7.70;1.00
6178;DHT22;3122;48.208;11.174;2023-01-13T01:54:04;7.70;1.00
6178;DHT22;3122;48.208;11.174;2023-01-13T01:59:05;7.70;1.00
6178;DHT22;3122;48.208;11.174;2023-01-13T02:04:11;7.70;1.00
6178;DHT22;3122;48.208;11.174;2023-01-13T02:09:13;7.70;1.00
6178;DHT22;3122;48.208;11.174;2023-01-13T02:14:14;7.80;1.00
6178;DHT22;3122;48.208;11.174;2023-01-13T02:19:28;7.80;1.00
6178;DHT22;3122;48.208;11.174;2023-01-13T02:24:51;7.80;1.00
6178;DHT22;3122;48.208;11.174;2023-01-13T02:40:36;7.90;1.00
6178;DHT22;3122;48.208;11.174;2023-01-13T02:45:51;7.80;1.00
6178;DHT22;3122;48.208;11.174;2023-01-13T02:51:01;7.80;1.00
6178;DHT22;3122;48.208;11.174;2023-01-13T02:56:05;7.90;1.00
6178;DHT22;3122;48.208;11.174;2023-01-13T03:01:07;7.90;1.00
6178;DHT22;3122;48.208;11.174;2023-01-13T03:11:13;7.90;1.00
6178;DHT22;3122;48.208;11.174;2023-01-13T03:17:11;7.90;1.00
6178;DHT22;3122;48.208;11.174;2023-01-13T03:22:27;7.80;1.00
6178;DHT22;3122;48.208;11.174;2023-01-13T03:27:45;7.90;1.00
6178;DHT22;3122;48.208;11.174;2023-01-13T03:32:50;7.90;1.00
6178;DHT22;3122;48.208;11.174;2023-01-13T03:38:05;7.90;1.00
6178;DHT22;3122;48.208;11.174;2023-01-13T03:43:15;7.90;1.00
6178;DHT22;3122;48.208;11.174;2023-01-13T03:48:36;8.00;1.00
6178;DHT22;3122;48.208;11.174;2023-01-13T03:53:54;8.00;1.00
6178;DHT22;3122;48.208;11.174;2023-01-13T03:58:57;7.90;1.00
6178;DHT22;3122;48.208;11.174;2023-01-13T04:04:07;8.00;1.00
6178;DHT22;3122;48.208;11.174;2023-01-13T04:09:17;8.00;1.00
6178;DHT22;3122;48.208;11.174;2023-01-13T04:14:23;8.00;1.00
6178;DHT22;3122;48.208;11.174;2023-01-13T04:19:25;8.10;1.00
6178;DHT22;3122;48.208;11.174;2023-01-13T04:24:25;8.20;1.00
6178;DHT22;3122;48.208;11.174;2023-01-13T04:29:26;8.10;1.00
6178;DHT22;3122;48.208;11.174;2023-01-13T04:34:27;8.10;1.00
6178;DHT22;3122;48.208;11.174;2023-01-13T04:39:27;8.10;1.00
6178;DHT22;3122;48.208;11.174;2023-01-13T04:44:28;8.10;1.00
6178;DHT22;3122;48.208;11.174;2023-01-13T04:49:31;8.10;1.00
6178;DHT22;3122;48.208;11.174;2023-01-13T04:54:32;8.10;1.00
6178;DHT22;3122;48.208;11.174;2023-01-13T04:59:33;8.10;1.00
6178;DHT22;3122;48.208;11.174;2023-01-13T05:04:34;8.20;1.00
6178;DHT22;3122;48.208;11.174;2023-01-13T05:09:34;8.30;1.00
6178;DHT22;3122;48.208;11.174;2023-01-13T05:14:35;8.30;1.00
6178;DHT22;3122;48.208;11.174;2023-01-13T05:19:54;8.40;1.00
6178;DHT22;3122;48.208;11.174;2023-01-13T05:24:55;8.40;1.00
6178;DHT22;3122;48.208;11.174;2023-01-13T05:30:14;8.50;1.00
6178;DHT22;3122;48.208;11.174;2023-01-13T05:35:16;8.50;1.00
6178;DHT22;3122;48.208;11.174;2023-01-13T05:40:17;8.50;1.00
6178;DHT22;3122;48.208;11.174;2023-01-13T05:45:37;8.60;1.00
6178;DHT22;3122;48.208;11.174;2023-01-13T05:50:37;8.60;1.00
6178;DHT22;3122;48.208;11.174;2023-01-13T05:55:39;8.60;1.00
6178;DHT22;3122;48.208;11.174;2023-01-13T06:00:40;8.60;1.00
6178;DHT22;3122;48.208;11.174;2023-01-13T06:05:41;8.50;1.00
6178;DHT22;3122;48.208;11.174;2023-01-13T06:10:42;8.50;1.00
6178;DHT22;3122;48.208;11.174;2023-01-13T06:15:42;8.50;1.00
6178;DHT22;3122;48.208;11.174;2023-01-13T06:20:43;8.40;1.00
6178;DHT22;3122;48.208;11.174;2023-01-13T06:25:57;8.40;1.00
6178;DHT22;3122;48.208;11.174;2023-01-13T06:31:03;8.30;1.00
6178;DHT22;3122;48.208;11.174;2023-01-13T06:36:12;8.40;1.00
6178;DHT22;3122;48.208;11.174;2023-01-13T06:41:16;8.30;1.00
6178;DHT22;3122;48.208;11.174;2023-01-13T06:46:17;8.30;1.00
6178;DHT22;3122;48.208;11.174;2023-01-13T06:51:17;8.30;1.00
6178;DHT22;3122;48.208;11.174;2023-01-13T06:56:18;8.20;1.00
6178;DHT22;3122;48.208;11.174;2023-01-13T07:01:18;8.20;1.00
6178;DHT22;3122;48.208;11.174;2023-01-13T07:06:19;8.30;1.00
6178;DHT22;3122;48.208;11.174;2023-01-13T07:11:19;8.30;1.00
6178;DHT22;3122;48.208;11.174;2023-01-13T07:16:20;8.30;1.00
6178;DHT22;3122;48.208;11.174;2023-01-13T07:21:23;8.30;1.00
6178;DHT22;3122;48.208;11.174;2023-01-13T07:26:24;8.40;1.00
6178;DHT22;3122;48.208;11.174;2023-01-13T07:31:24;8.30;1.00
6178;DHT22;3122;48.208;11.174;2023-01-13T07:36:25;8.40;1.00
6178;DHT22;3122;48.208;11.174;2023-01-13T07:41:26;8.40;1.00
6178;DHT22;3122;48.208;11.174;2023-01-13T07:46:45;8.40;1.00
6178;DHT22;3122;48.208;11.174;2023-01-13T07:51:45;8.30;1.00
6178;DHT22;3122;48.208;11.174;2023-01-13T07:56:46;8.40;1.00
6178;DHT22;3122;48.208;11.174;2023-01-13T08:01:46;8.40;1.00
6178;DHT22;3122;48.208;11.174;2023-01-13T08:06:47;8.40;1.00
6178;DHT22;3122;48.208;11.174;2023-01-13T08:11:48;8.50;1.00
6178;DHT22;3122;48.208;11.174;2023-01-13T08:17:09;8.50;1.00
6178;DHT22;3122;48.208;11.174;2023-01-13T08:22:10;8.50;1.00
6178;DHT22;3122;48.208;11.174;2023-01-13T08:27:10;8.50;1.00
6178;DHT22;3122;48.208;11.174;2023-01-13T08:32:11;8.50;1.00
6178;DHT22;3122;48.208;11.174;2023-01-13T08:37:11;8.50;1.00
6178;DHT22;3122;48.208;11.174;2023-01-13T08:42:12;8.60;1.00
6178;DHT22;3122;48.208;11.174;2023-01-13T08:47:12;8.60;1.00
6178;DHT22;3122;48.208;11.174;2023-01-13T08:52:14;8.70;1.00
6178;DHT22;3122;48.208;11.174;2023-01-13T08:57:15;8.70;1.00
6178;DHT22;3122;48.208;11.174;2023-01-13T09:02:18;8.70;1.00
6178;DHT22;3122;48.208;11.174;2023-01-13T09:07:19;8.80;1.00
6178;DHT22;3122;48.208;11.174;2023-01-13T09:12:20;8.90;1.00
6178;DHT22;3122;48.208;11.174;2023-01-13T09:17:39;8.90;1.00
6178;DHT22;3122;48.208;11.174;2023-01-13T09:22:39;9.00;1.00
6178;DHT22;3122;48.208;11.174;2023-01-13T09:27:40;9.00;1.00
6178;DHT22;3122;48.208;11.174;2023-01-13T09:32:41;9.00;1.00
6178;DHT22;3122;48.208;11.174;2023-01-13T09:37:41;9.00;1.00
6178;DHT22;3122;48.208;11.174;2023-01-13T09:42:48;9.10;1.00
6178;DHT22;3122;48.208;11.174;2023-01-13T09:53:30;9.30;1.00
6178;DHT22;3122;48.208;11.174;2023-01-13T09:58:32;9.20;1.00
6178;DHT22;3122;48.208;11.174;2023-01-13T10:03:34;9.30;1.00
6178;DHT22;3122;48.208;11.174;2023-01-13T10:08:39;9.30;1.00
6178;DHT22;3122;48.208;11.174;2023-01-13T10:13:41;9.40;1.00
6178;DHT22;3122;48.208;11.174;2023-01-13T10:23:46;9.60;1.00
6178;DHT22;3122;48.208;11.174;2023-01-13T10:28:53;9.90;1.00
6178;DHT22;3122;48.208;11.174;2023-01-13T10:34:02;10.20;1.00
6178;DHT22;3122;48.208;11.174;2023-01-13T10:39:08;10.10;1.00
6178;DHT22;3122;48.208;11.174;2023-01-13T10:44:15;10.00;1.00
6178;DHT22;3122;48.208;11.174;2023-01-13T10:49:32;10.00;1.00
6178;DHT22;3122;48.208;11.174;2023-01-13T10:54:33;9.90;1.00
6178;DHT22;3122;48.208;11.174;2023-01-13T10:59:35;9.90;1.00
6178;DHT22;3122;48.208;11.174;2023-01-13T11:10:36;9.70;1.00
6178;DHT22;3122;48.208;11.174;2023-01-13T11:15:53;9.40;1.00
6178;DHT22;3122;48.208;11.174;2023-01-13T11:20:55;9.40;1.00
6178;DHT22;3122;48.208;11.174;2023-01-13T11:26:03;9.60;1.00
6178;DHT22;3122;48.208;11.174;2023-01-13T11:31:25;9.60;1.00
6178;DHT22;3122;48.208;11.174;2023-01-13T11:36:37;9.60;1.00
6178;DHT22;3122;48.208;11.174;2023-01-13T11:41:46;9.60;1.00
6178;DHT22;3122;48.208;11.174;2023-01-13T11:47:09;9.50;1.00
6178;DHT22;3122;48.208;11.174;2023-01-13T11:52:47;9.40;1.00
6178;DHT22;3122;48.208;11.174;2023-01-13T12:03:29;9.40;1.00
6178;DHT22;3122;48.208;11.174;2023-01-13T12:29:36;9.40;1.00
6178;DHT22;3122;48.208;11.174;2023-01-13T12:45:18;9.30;1.00
6178;DHT22;3122;48.208;11.174;2023-01-13T12:55:36;9.30;1.00
6178;DHT22;3122;48.208;11.174;2023-01-13T13:05:54;9.10;1.00
6178;DHT22;3122;48.208;11.174;2023-01-13T13:16:50;9.00;1.00
6178;DHT22;3122;48.208;11.174;2023-01-13T13:44:26;9.00;1.00
6178;DHT22;3122;48.208;11.174;2023-01-13T13:49:49;9.00;1.00
6178;DHT22;3122;48.208;11.174;2023-01-13T13:54:56;6.90;1.00
6178;DHT22;3122;48.208;11.174;2023-01-13T13:59:58;5.50;1.00
6178;DHT22;3122;48.208;11.174;2023-01-13T14:10:27;5.10;1.00
6178;DHT22;3122;48.208;11.174;2023-01-13T14:15:35;4.90;1.00
6178;DHT22;3122;48.208;11.174;2023-01-13T14:20:38;5.00;1.00
6178;DHT22;3122;48.208;11.174;2023-01-13T14:25:46;4.90;1.00
6178;DHT22;3122;48.208;11.174;2023-01-13T14:30:48;5.10;1.00
6178;DHT22;3122;48.208;11.174;2023-01-13T14:36:11;5.20;1.00
6178;DHT22;3122;48.208;11.174;2023-01-13T14:41:21;5.20;1.00
6178;DHT22;3122;48.208;11.174;2023-01-13T14:46:23;5.10;1.00
6178;DHT22;3122;48.208;11.174;2023-01-13T14:51:26;5.20;1.00
6178;DHT22;3122;48.208;11.174;2023-01-13T14:56:49;5.30;1.00
6178;DHT22;3122;48.208;11.174;2023-01-13T15:01:50;5.30;1.00
6178;DHT22;3122;48.208;11.174;2023-01-13T15:06:54;5.30;1.00
6178;DHT22;3122;48.208;11.174;2023-01-13T15:11:55;5.40;1.00
6178;DHT22;3122;48.208;11.174;2023-01-13T15:16:58;5.40;1.00
6178;DHT22;3122;48.208;11.174;2023-01-13T15:21:58;5.40;1.00
6178;DHT22;3122;48.208;11.174;2023-01-13T15:26:59;5.40;1.00
6178;DHT22;3122;48.208;11.174;2023-01-13T15:31:59;5.40;1.00
6178;DHT22;3122;48.208;11.174;2023-01-13T15:37:00;5.30;1.00
6178;DHT22;3122;48.208;11.174;2023-01-13T15:42:00;5.30;1.00
6178;DHT22;3122;48.208;11.174;2023-01-13T15:47:21;5.20;1.00
6178;DHT22;3122;48.208;11.174;2023-01-13T15:52:25;5.00;1.00
6178;DHT22;3122;48.208;11.174;2023-01-13T15:57:28;5.10;1.00
6178;DHT22;3122;48.208;11.174;2023-01-13T16:02:30;5.00;1.00
6178;DHT22;3122;48.208;11.174;2023-01-13T16:07:30;5.10;1.00
6178;DHT22;3122;48.208;11.174;2023-01-13T16:12:31;5.10;1.00
6178;DHT22;3122;48.208;11.174;2023-01-13T16:17:32;5.20;1.00
6178;DHT22;3122;48.208;11.174;2023-01-13T16:22:34;5.20;1.00
6178;DHT22;3122;48.208;11.174;2023-01-13T16:27:34;5.50;1.00
6178;DHT22;3122;48.208;11.174;2023-01-13T16:32:35;5.50;1.00
6178;DHT22;3122;48.208;11.174;2023-01-13T16:37:35;5.50;1.00
6178;DHT22;3122;48.208;11.174;2023-01-13T16:42:36;5.60;1.00
6178;DHT22;3122;48.208;11.174;2023-01-13T16:47:37;5.60;1.00
6178;DHT22;3122;48.208;11.174;2023-01-13T16:52:38;5.70;1.00
6178;DHT22;3122;48.208;11.174;2023-01-13T16:57:39;5.70;1.00
6178;DHT22;3122;48.208;11.174;2023-01-13T17:02:39;5.60;1.00
6178;DHT22;3122;48.208;11.174;2023-01-13T17:07:42;5.60;1.00
6178;DHT22;3122;48.208;11.174;2023-01-13T17:12:43;5.40;1.00
6178;DHT22;3122;48.208;11.174;2023-01-13T17:17:44;5.40;1.00
6178;DHT22;3122;48.208;11.174;2023-01-13T17:22:51;5.40;1.00
6178;DHT22;3122;48.208;11.174;2023-01-13T17:27:51;5.40;1.00
6178;DHT22;3122;48.208;11.174;2023-01-13T17:32:52;5.40;1.00
6178;DHT22;3122;48.208;11.174;2023-01-13T17:37:52;5.40;1.00
6178;DHT22;3122;48.208;11.174;2023-01-13T17:42:53;5.50;1.00
6178;DHT22;3122;48.208;11.174;2023-01-13T17:47:57;5.60;1.00
6178;DHT22;3122;48.208;11.174;2023-01-13T17:52:57;5.80;1.00
6178;DHT22;3122;48.208;11.174;2023-01-13T17:57:58;5.90;1.00
6178;DHT22;3122;48.208;11.174;2023-01-13T18:02:58;5.80;1.00
6178;DHT22;3122;48.208;11.174;2023-01-13T18:07:59;6.00;1.00
6178;DHT22;3122;48.208;11.174;2023-01-13T18:13:00;6.00;1.00
6178;DHT22;3122;48.208;11.174;2023-01-13T18:18:03;5.90;1.00
6178;DHT22;3122;48.208;11.174;2023-01-13T18:23:04;5.90;1.00
6178;DHT22;3122;48.208;11.174;2023-01-13T18:28:23;5.80;1.00
6178;DHT22;3122;48.208;11.174;2023-01-13T18:33:24;5.80;1.00
6178;DHT22;3122;48.208;11.174;2023-01-13T18:38:24;5.80;1.00
6178;DHT22;3122;48.208;11.174;2023-01-13T18:43:25;5.80;1.00
6178;DHT22;3122;48.208;11.174;2023-01-13T18:48:26;5.70;1.00
6178;DHT22;3122;48.208;11.174;2023-01-13T18:53:27;5.60;1.00
6178;DHT22;3122;48.208;11.174;2023-01-13T18:58:27;5.40;1.00
6178;DHT22;3122;48.208;11.174;2023-01-13T19:03:29;5.30;1.00
6178;DHT22;3122;48.208;11.174;2023-01-13T19:08:30;5.20;1.00
6178;DHT22;3122;48.208;11.174;2023-01-13T19:13:35;5.10;1.00
6178;DHT22;3122;48.208;11.174;2023-01-13T19:18:36;5.00;1.00
6178;DHT22;3122;48.208;11.174;2023-01-13T19:23:37;5.00;1.00
6178;DHT22;3122;48.208;11.174;2023-01-13T19:28:39;5.10;1.00
6178;DHT22;3122;48.208;11.174;2023-01-13T19:33:39;5.00;1.00
6178;DHT22;3122;48.208;11.174;2023-01-13T19:38:40;5.00;1.00
6178;DHT22;3122;48.208;11.174;2023-01-13T19:43:41;5.00;1.00
6178;DHT22;3122;48.208;11.174;2023-01-13T19:49:14;5.10;1.00
6178;DHT22;3122;48.208;11.174;2023-01-13T19:54:14;5.10;1.00
6178;DHT22;3122;48.208;11.174;2023-01-13T19:59:15;5.10;1.00
6178;DHT22;3122;48.208;11.174;2023-01-13T20:04:21;5.10;1.00
6178;DHT22;3122;48.208;11.174;2023-01-13T20:09:29;5.00;1.00
6178;DHT22;3122;48.208;11.174;2023-01-13T20:14:30;4.90;1.00
6178;DHT22;3122;48.208;11.174;2023-01-13T20:19:31;4.50;1.00
6178;DHT22;3122;48.208;11.174;2023-01-13T20:24:32;4.20;1.00
6178;DHT22;3122;48.208;11.174;2023-01-13T20:29:32;4.10;1.00
6178;DHT22;3122;48.208;11.174;2023-01-13T20:34:33;4.10;1.00
6178;DHT22;3122;48.208;11.174;2023-01-13T20:39:34;4.20;1.00
6178;DHT22;3122;48.208;11.174;2023-01-13T20:44:35;4.20;1.00
6178;DHT22;3122;48.208;11.174;2023-01-13T20:49:36;4.10;1.00
6178;DHT22;3122;48.208;11.174;2023-01-13T20:54:37;4.10;1.00
6178;DHT22;3122;48.208;11.174;2023-01-13T20:59:38;4.10;1.00
6178;DHT22;3122;48.208;11.174;2023-01-13T21:04:39;4.10;1.00
6178;DHT22;3122;48.208;11.174;2023-01-13T21:09:40;4.10;1.00
6178;DHT22;3122;48.208;11.174;2023-01-13T21:14:41;4.00;1.00
6178;DHT22;3122;48.208;11.174;2023-01-13T21:20:00;4.00;1.00
6178;DHT22;3122;48.208;11.174;2023-01-13T21:25:02;4.00;1.00
6178;DHT22;3122;48.208;11.174;2023-01-13T21:30:04;3.90;1.00
6178;DHT22;3122;48.208;11.174;2023-01-13T21:35:05;3.90;1.00
6178;DHT22;3122;48.208;11.174;2023-01-13T21:40:07;3.60;1.00
6178;DHT22;3122;48.208;11.174;2023-01-13T21:45:09;3.70;1.00
6178;DHT22;3122;48.208;11.174;2023-01-13T21:50:28;3.60;1.00
6178;DHT22;3122;48.208;11.174;2023-01-13T21:55:29;3.50;1.00
6178;DHT22;3122;48.208;11.174;2023-01-13T22:00:30;3.40;1.00
6178;DHT22;3122;48.208;11.174;2023-01-13T22:05:32;3.30;1.00
6178;DHT22;3122;48.208;11.174;2023-01-13T22:10:33;3.20;1.00
6178;DHT22;3122;48.208;11.174;2023-01-13T22:15:34;3.00;1.00
6178;DHT22;3122;48.208;11.174;2023-01-13T22:20:34;3.00;1.00
6178;DHT22;3122;48.208;11.174;2023-01-13T22:25:35;2.90;1.00
6178;DHT22;3122;48.208;11.174;2023-01-13T22:30:35;2.90;1.00
6178;DHT22;3122;48.208;11.174;2023-01-13T22:35:36;2.90;1.00
6178;DHT22;3122;48.208;11.174;2023-01-13T22:40:37;3.00;1.00
6178;DHT22;3122;48.208;11.174;2023-01-13T22:45:38;3.00;1.00
6178;DHT22;3122;48.208;11.174;2023-01-13T22:50:38;2.90;1.00
6178;DHT22;3122;48.208;11.174;2023-01-13T22:55:39;3.00;1.00
6178;DHT22;3122;48.208;11.174;2023-01-13T23:00:39;3.00;1.00
6178;DHT22;3122;48.208;11.174;2023-01-13T23:05:41;3.00;1.00
6178;DHT22;3122;48.208;11.174;2023-01-13T23:10:41;3.10;1.00
6178;DHT22;3122;48.208;11.174;2023-01-13T23:15:42;3.10;1.00
6178;DHT22;3122;48.208;11.174;2023-01-13T23:20:42;3.20;1.00
6178;DHT22;3122;48.208;11.174;2023-01-13T23:25:50;3.20;1.00
6178;DHT22;3122;48.208;11.174;2023-01-13T23:30:52;3.30;1.00
6178;DHT22;3122;48.208;11.174;2023-01-13T23:35:58;3.50;1.00
6178;DHT22;3122;48.208;11.174;2023-01-13T23:40:59;3.60;1.00
6178;DHT22;3122;48.208;11.174;2023-01-13T23:51:10;3.70;1.00
6178;DHT22;3122;48.208;11.174;2023-01-13T23:56:19;3.80;1.00
